createdAt,value
2023-04-15T00:02:19.649Z,100.00
2023-04-15T00:04:47.013Z,100.00
2023-04-15T00:07:14.796Z,100.00
2023-04-15T00:09:45.028Z,100.00
2023-04-15T00:12:12.786Z,100.00
2023-04-15T00:14:39.648Z,100.00
2023-04-15T00:17:06.273Z,100.00
2023-04-15T00:19:33.303Z,100.00
2023-04-15T00:22:00.777Z,100.00
2023-04-15T00:24:27.929Z,100.00
2023-04-15T00:26:54.599Z,100.00
2023-04-15T00:29:21.208Z,100.00
2023-04-15T00:31:48.054Z,100.00
2023-04-15T00:34:14.934Z,100.00
2023-04-15T00:36:43.327Z,100.00
2023-04-15T00:39:10.294Z,100.00
2023-04-15T00:41:39.286Z,100.00
2023-04-15T00:44:07.076Z,100.00
2023-04-15T00:46:35.968Z,100.00
2023-04-15T00:49:04.163Z,100.00
2023-04-15T00:51:33.498Z,100.00
2023-04-15T00:54:00.728Z,100.00
2023-04-15T00:56:29.422Z,100.00
2023-04-15T00:58:57.326Z,100.00
2023-04-15T01:01:26.089Z,100.00
2023-04-15T01:03:52.866Z,100.00
2023-04-15T01:06:19.856Z,100.00
2023-04-15T01:08:46.631Z,100.00
2023-04-15T01:11:14.472Z,100.00
2023-04-15T01:13:41.752Z,100.00
2023-04-15T01:16:09.414Z,100.00
2023-04-15T01:18:38.611Z,100.00
2023-04-15T01:21:07.139Z,100.00
2023-04-15T01:23:37.181Z,100.00
2023-04-15T01:26:05.118Z,100.00
2023-04-15T01:28:32.951Z,100.00
2023-04-15T01:31:10.816Z,100.00
2023-04-15T01:33:38.408Z,100.00
2023-04-15T01:36:07.102Z,100.00
2023-04-15T01:38:33.893Z,100.00
2023-04-15T01:41:00.507Z,100.00
2023-04-15T01:43:28.158Z,100.00
2023-04-15T01:45:55.036Z,100.00
2023-04-15T01:48:22.171Z,100.00
2023-04-15T01:50:48.999Z,100.00
2023-04-15T01:53:15.928Z,100.00
2023-04-15T01:55:42.553Z,100.00
2023-04-15T01:58:09.258Z,100.00
2023-04-15T02:00:35.906Z,100.00
2023-04-15T02:03:02.655Z,100.00
2023-04-15T02:05:29.349Z,100.00
2023-04-15T02:07:55.931Z,100.00
2023-04-15T02:10:23.330Z,100.00
2023-04-15T02:12:49.992Z,100.00
2023-04-15T02:15:16.681Z,100.00
2023-04-15T02:17:46.026Z,100.00
2023-04-15T02:20:15.353Z,100.00
2023-04-15T02:22:42.110Z,100.00
2023-04-15T02:25:09.340Z,100.00
2023-04-15T02:27:36.691Z,100.00
2023-04-15T02:30:03.924Z,100.00
2023-04-15T02:32:30.603Z,100.00
2023-04-15T02:34:57.178Z,100.00
2023-04-15T02:37:24.772Z,100.00
2023-04-15T02:39:51.531Z,100.00
2023-04-15T02:42:18.663Z,100.00
2023-04-15T02:44:45.394Z,100.00
2023-04-15T02:47:12.395Z,100.00
2023-04-15T02:49:40.165Z,100.00
2023-04-15T02:52:07.025Z,100.00
2023-04-15T02:54:34.102Z,100.00
2023-04-15T02:57:01.669Z,100.00
2023-04-15T02:59:28.398Z,100.00
2023-04-15T03:01:56.685Z,100.00
2023-04-15T03:04:23.476Z,100.00
2023-04-15T03:06:50.070Z,100.00
2023-04-15T03:09:16.952Z,100.00
2023-04-15T03:11:43.780Z,100.00
2023-04-15T03:14:10.415Z,100.00
2023-04-15T03:16:41.371Z,100.00
2023-04-15T03:19:08.114Z,100.00
2023-04-15T03:21:34.961Z,100.00
2023-04-15T03:24:01.618Z,100.00
2023-04-15T03:26:32.181Z,100.00
2023-04-15T03:29:02.266Z,100.00
2023-04-15T03:31:29.212Z,100.00
2023-04-15T03:33:55.841Z,100.00
2023-04-15T03:36:23.616Z,100.00
2023-04-15T03:38:50.388Z,100.00
2023-04-15T03:41:17.407Z,100.00
2023-04-15T03:43:44.004Z,100.00
2023-04-15T03:46:10.706Z,100.00
2023-04-15T03:48:37.277Z,100.00
2023-04-15T03:51:04.022Z,100.00
2023-04-15T03:53:30.659Z,100.00
2023-04-15T03:55:57.293Z,100.00
2023-04-15T03:58:23.966Z,100.00
2023-04-15T04:00:50.561Z,100.00
2023-04-15T04:03:17.391Z,100.00
2023-04-15T04:05:44.534Z,100.00
2023-04-15T04:08:13.718Z,100.00
2023-04-15T04:10:40.329Z,100.00
2023-04-15T04:13:07.083Z,100.00
2023-04-15T04:15:33.865Z,100.00
2023-04-15T04:18:00.838Z,100.00
2023-04-15T04:20:27.495Z,100.00
2023-04-15T04:22:54.078Z,100.00
2023-04-15T04:25:20.643Z,100.00
2023-04-15T04:27:47.212Z,100.00
2023-04-15T04:30:13.871Z,100.00
2023-04-15T04:32:40.851Z,100.00
2023-04-15T04:35:08.911Z,100.00
2023-04-15T04:37:35.632Z,100.00
2023-04-15T04:40:02.253Z,100.00
2023-04-15T04:42:28.963Z,100.00
2023-04-15T04:44:55.543Z,100.00
2023-04-15T04:47:22.183Z,100.00
2023-04-15T04:49:48.881Z,100.00
2023-04-15T04:52:15.737Z,100.00
2023-04-15T04:54:42.334Z,100.00
2023-04-15T04:57:08.918Z,100.00
2023-04-15T04:59:35.498Z,100.00
2023-04-15T05:02:02.218Z,100.00
2023-04-15T05:04:28.911Z,100.00
2023-04-15T05:06:55.556Z,100.00
2023-04-15T05:09:22.157Z,100.00
2023-04-15T05:11:48.875Z,100.00
2023-04-15T05:14:15.435Z,100.00
2023-04-15T05:16:42.262Z,100.00
2023-04-15T05:19:08.902Z,100.00
2023-04-15T05:21:37.600Z,100.00
2023-04-15T05:24:06.341Z,100.00
2023-04-15T05:26:32.948Z,100.00
2023-04-15T05:28:59.608Z,100.00
2023-04-15T05:31:26.648Z,100.00
2023-04-15T05:33:53.253Z,100.00
2023-04-15T05:36:19.918Z,100.00
2023-04-15T05:38:46.741Z,100.00
2023-04-15T05:41:16.571Z,100.00
2023-04-15T05:43:45.144Z,100.00
2023-04-15T05:46:12.106Z,100.00
2023-04-15T05:48:38.886Z,100.00
2023-04-15T05:51:06.464Z,100.00
2023-04-15T05:53:33.269Z,100.00
2023-04-15T05:56:00.177Z,100.00
2023-04-15T05:58:27.035Z,100.00
2023-04-15T06:00:53.879Z,100.00
2023-04-15T06:03:21.902Z,100.00
2023-04-15T06:05:48.577Z,100.00
2023-04-15T06:08:15.297Z,100.00
2023-04-15T06:10:41.944Z,100.00
2023-04-15T06:13:08.531Z,100.00
2023-04-15T06:15:35.895Z,100.00
2023-04-15T06:18:03.261Z,100.00
2023-04-15T06:20:30.059Z,100.00
2023-04-15T06:22:57.700Z,100.00
2023-04-15T06:25:24.322Z,100.00
2023-04-15T06:27:50.887Z,100.00
2023-04-15T06:30:17.452Z,100.00
2023-04-15T06:32:44.100Z,100.00
2023-04-15T06:35:10.707Z,100.00
2023-04-15T06:37:37.305Z,100.00
2023-04-15T06:40:05.218Z,100.00
2023-04-15T06:42:32.180Z,100.00
2023-04-15T06:44:58.749Z,100.00
2023-04-15T06:47:25.382Z,100.00
2023-04-15T06:49:52.054Z,100.00
2023-04-15T06:52:18.725Z,100.00
2023-04-15T06:54:45.407Z,100.00
2023-04-15T06:57:12.001Z,100.00
2023-04-15T06:59:38.627Z,100.00
2023-04-15T07:02:05.275Z,100.00
2023-04-15T07:04:32.824Z,100.00
2023-04-15T07:07:00.746Z,100.00
2023-04-15T07:09:27.350Z,100.00
2023-04-15T07:11:53.984Z,100.00
2023-04-15T07:14:20.883Z,100.00
2023-04-15T07:16:47.559Z,100.00
2023-04-15T07:19:14.262Z,100.00
2023-04-15T07:21:41.939Z,100.00
2023-04-15T07:24:10.430Z,100.00
2023-04-15T07:26:37.115Z,100.00
2023-04-15T07:29:04.144Z,100.00
2023-04-15T07:31:31.327Z,100.00
2023-04-15T07:33:58.607Z,100.00
2023-04-15T07:36:25.392Z,100.00
2023-04-15T07:38:52.575Z,100.00
2023-04-15T07:41:19.334Z,100.00
2023-04-15T07:43:45.943Z,100.00
2023-04-15T07:46:12.775Z,100.00
2023-04-15T07:48:39.409Z,100.00
2023-04-15T07:51:06.251Z,100.00
2023-04-15T07:53:33.292Z,100.00
2023-04-15T07:55:59.924Z,100.00
2023-04-15T07:58:26.541Z,100.00
2023-04-15T08:00:55.123Z,100.00
2023-04-15T08:03:22.756Z,100.00
2023-04-15T08:05:49.517Z,100.00
2023-04-15T08:08:16.771Z,100.00
2023-04-15T08:10:43.440Z,100.00
2023-04-15T08:13:10.171Z,100.00
2023-04-15T08:15:36.831Z,100.00
2023-04-15T08:18:03.770Z,100.00
2023-04-15T08:20:30.700Z,100.00
2023-04-15T08:22:57.292Z,100.00
2023-04-15T08:25:24.455Z,100.00
2023-04-15T08:27:51.555Z,100.00
2023-04-15T08:30:18.515Z,100.00
2023-04-15T08:32:49.463Z,100.00
2023-04-15T08:35:17.283Z,100.00
2023-04-15T08:37:44.538Z,100.00
2023-04-15T08:40:11.626Z,100.00
2023-04-15T08:42:44.906Z,100.00
2023-04-15T08:45:13.307Z,100.00
2023-04-15T08:47:41.075Z,100.00
2023-04-15T08:50:10.776Z,100.00
2023-04-15T08:52:38.094Z,100.00
2023-04-15T08:55:07.642Z,100.00
2023-04-15T08:57:36.030Z,100.00
2023-04-15T09:00:05.738Z,100.00
2023-04-15T09:02:32.759Z,100.00
2023-04-15T09:05:01.053Z,100.00
2023-04-15T09:07:28.232Z,100.00
2023-04-15T09:09:55.297Z,100.00
2023-04-15T09:12:22.441Z,100.00
2023-04-15T09:14:50.131Z,100.00
2023-04-15T09:17:21.951Z,100.00
2023-04-15T09:19:49.155Z,100.00
2023-04-15T09:22:15.999Z,100.00
2023-04-15T09:24:43.534Z,100.00
2023-04-15T09:27:11.518Z,100.00
2023-04-15T09:29:38.405Z,100.00
2023-04-15T09:32:16.524Z,100.00
2023-04-15T09:34:43.373Z,100.00
2023-04-15T09:37:11.368Z,100.00
2023-04-15T09:39:50.220Z,100.00
2023-04-15T09:42:27.333Z,100.00
2023-04-15T09:44:54.835Z,100.00
2023-04-15T09:47:32.393Z,100.00
2023-04-15T09:50:00.642Z,100.00
2023-04-15T09:52:28.657Z,100.00
2023-04-15T09:54:57.652Z,100.00
2023-04-15T09:57:25.137Z,100.00
2023-04-15T09:59:52.280Z,100.00
2023-04-15T10:02:23.113Z,100.00
2023-04-15T10:04:52.313Z,100.00
2023-04-15T10:07:22.652Z,100.00
2023-04-15T10:09:49.612Z,100.00
2023-04-15T10:12:18.171Z,100.00
2023-04-15T10:14:48.165Z,100.00
2023-04-15T10:17:18.405Z,100.00
2023-04-15T10:19:45.739Z,100.00
2023-04-15T10:22:12.999Z,100.00
2023-04-15T10:24:40.752Z,100.00
2023-04-15T10:27:07.982Z,100.00
2023-04-15T10:29:34.645Z,100.00
2023-04-15T10:32:02.147Z,100.00
2023-04-15T10:34:31.138Z,100.00
2023-04-15T10:37:03.624Z,100.00
2023-04-15T10:39:33.188Z,100.00
2023-04-15T10:42:15.263Z,100.00
2023-04-15T10:44:45.860Z,100.00
2023-04-15T10:47:14.627Z,100.00
2023-04-15T10:49:50.490Z,100.00
2023-04-15T10:52:22.845Z,100.00
2023-04-15T10:54:49.496Z,100.00
2023-04-15T10:57:22.314Z,100.00
2023-04-15T11:00:07.592Z,100.00
2023-04-15T11:02:48.977Z,100.00
2023-04-15T11:05:17.527Z,100.00
2023-04-15T11:07:48.488Z,100.00
2023-04-15T11:10:18.974Z,100.00
2023-04-15T11:12:46.700Z,100.00
2023-04-15T11:15:37.813Z,100.00
2023-04-15T11:18:15.369Z,100.00
2023-04-15T11:20:45.239Z,100.00
2023-04-15T11:23:14.534Z,100.00
2023-04-15T11:25:43.851Z,100.00
2023-04-15T11:28:12.912Z,100.00
2023-04-15T11:30:41.368Z,100.00
2023-04-15T11:33:10.140Z,100.00
2023-04-15T11:35:37.053Z,100.00
2023-04-15T11:38:11.520Z,100.00
2023-04-15T11:40:39.421Z,100.00
2023-04-15T11:43:08.351Z,100.00
2023-04-15T11:45:48.486Z,100.00
2023-04-15T11:48:16.029Z,100.00
2023-04-15T11:50:42.712Z,100.00
2023-04-15T11:53:13.699Z,100.00
2023-04-15T11:55:45.677Z,100.00
2023-04-15T11:58:27.025Z,100.00
2023-04-15T12:00:57.495Z,100.00
2023-04-15T12:03:37.770Z,100.00
2023-04-15T12:06:04.933Z,100.00
2023-04-15T12:09:09.685Z,100.00
2023-04-15T12:11:51.391Z,98.55
2023-04-15T12:14:28.293Z,99.17
2023-04-15T12:16:59.251Z,100.00
2023-04-15T12:19:38.165Z,100.00
2023-04-15T12:22:09.187Z,99.61
2023-04-15T12:24:38.019Z,100.00
2023-04-15T12:27:06.828Z,100.00
2023-04-15T12:29:35.662Z,100.00
2023-04-15T12:32:09.500Z,97.67
2023-04-15T12:34:40.270Z,99.62
2023-04-15T12:37:09.726Z,96.77
2023-04-15T12:39:38.554Z,97.14
2023-04-15T12:42:06.195Z,100.00
2023-04-15T12:44:33.985Z,97.79
2023-04-15T12:47:01.124Z,99.72
2023-04-15T12:49:28.570Z,99.80
2023-04-15T12:52:02.069Z,98.27
2023-04-15T12:54:30.098Z,99.10
2023-04-15T12:56:57.826Z,97.18
2023-04-15T12:59:25.231Z,97.11
2023-04-15T13:01:53.427Z,95.14
2023-04-15T13:04:21.392Z,97.48
2023-04-15T13:06:48.282Z,98.28
2023-04-15T13:09:15.702Z,98.07
2023-04-15T13:11:42.530Z,97.50
2023-04-15T13:14:11.955Z,97.94
2023-04-15T13:16:38.841Z,94.81
2023-04-15T13:19:06.462Z,94.77
2023-04-15T13:21:35.562Z,92.04
2023-04-15T13:24:04.874Z,93.08
2023-04-15T13:26:32.217Z,89.22
2023-04-15T13:28:58.983Z,90.59
2023-04-15T13:31:26.539Z,94.57
2023-04-15T13:33:53.302Z,96.35
2023-04-15T13:36:19.881Z,97.42
2023-04-15T13:38:47.538Z,95.31
2023-04-15T13:41:16.429Z,95.61
2023-04-15T13:43:43.072Z,95.43
2023-04-15T13:46:09.729Z,95.19
2023-04-15T13:48:36.567Z,93.22
2023-04-15T13:51:03.190Z,95.09
2023-04-15T13:53:37.916Z,94.91
2023-04-15T13:56:09.630Z,92.38
2023-04-15T13:58:37.513Z,92.47
2023-04-15T14:01:06.801Z,89.89
2023-04-15T14:03:37.127Z,88.33
2023-04-15T14:06:04.921Z,85.84
2023-04-15T14:08:32.511Z,88.74
2023-04-15T14:10:59.204Z,90.95
2023-04-15T14:13:25.917Z,94.86
2023-04-15T14:15:53.078Z,96.55
2023-04-15T14:18:20.062Z,96.82
2023-04-15T14:20:47.180Z,98.29
2023-04-15T14:23:14.430Z,96.88
2023-04-15T14:25:41.776Z,97.77
2023-04-15T14:28:09.159Z,100.00
2023-04-15T14:30:35.948Z,99.14
2023-04-15T14:33:02.819Z,100.00
2023-04-15T14:35:29.646Z,100.00
2023-04-15T14:37:56.248Z,100.00
2023-04-15T14:40:23.200Z,100.00
2023-04-15T14:42:49.957Z,100.00
2023-04-15T14:45:17.590Z,100.00
2023-04-15T14:47:44.842Z,100.00
2023-04-15T14:50:11.675Z,100.00
2023-04-15T14:52:40.938Z,100.00
2023-04-15T14:55:12.062Z,100.00
2023-04-15T14:57:40.135Z,100.00
2023-04-15T15:00:08.632Z,100.00
2023-04-15T15:02:39.724Z,100.00
2023-04-15T15:05:07.992Z,100.00
2023-04-15T15:07:36.919Z,100.00
2023-04-15T15:10:03.977Z,100.00
2023-04-15T15:12:30.715Z,100.00
2023-04-15T15:14:57.296Z,100.00
2023-04-15T15:17:24.009Z,100.00
2023-04-15T15:19:50.968Z,100.00
2023-04-15T15:22:20.832Z,100.00
2023-04-15T15:24:48.358Z,100.00
2023-04-15T15:27:15.063Z,100.00
2023-04-15T15:29:41.891Z,100.00
2023-04-15T15:32:08.585Z,100.00
2023-04-15T15:34:35.323Z,100.00
2023-04-15T15:37:02.094Z,100.00
2023-04-15T15:39:28.915Z,100.00
2023-04-15T15:41:55.529Z,100.00
2023-04-15T15:44:22.214Z,100.00
2023-04-15T15:46:50.490Z,100.00
2023-04-15T15:49:17.343Z,100.00
2023-04-15T15:51:44.027Z,100.00
2023-04-15T15:54:10.684Z,100.00
2023-04-15T15:56:39.399Z,100.00
2023-04-15T15:59:06.737Z,100.00
2023-04-15T16:01:33.693Z,100.00
2023-04-15T16:04:00.872Z,100.00
2023-04-15T16:06:28.179Z,100.00
2023-04-15T16:08:54.906Z,100.00
2023-04-15T16:11:21.540Z,100.00
2023-04-15T16:13:48.170Z,100.00
2023-04-15T16:16:14.949Z,100.00
2023-04-15T16:18:41.613Z,100.00
2023-04-15T16:21:08.865Z,100.00
2023-04-15T16:23:36.716Z,100.00
2023-04-15T16:26:03.925Z,100.00
2023-04-15T16:28:31.043Z,100.00
2023-04-15T16:30:58.337Z,100.00
2023-04-15T16:33:25.044Z,100.00
2023-04-15T16:35:52.769Z,100.00
2023-04-15T16:38:19.831Z,100.00
2023-04-15T16:40:46.742Z,100.00
2023-04-15T16:43:13.413Z,100.00
2023-04-15T16:45:41.367Z,100.00
2023-04-15T16:48:07.957Z,100.00
2023-04-15T16:50:37.184Z,100.00
2023-04-15T16:53:04.303Z,100.00
2023-04-15T16:55:30.954Z,100.00
2023-04-15T16:58:01.851Z,100.00
2023-04-15T17:00:30.246Z,100.00
2023-04-15T17:02:57.269Z,100.00
2023-04-15T17:05:24.812Z,100.00
2023-04-15T17:07:51.395Z,100.00
2023-04-15T17:10:17.958Z,100.00
2023-04-15T17:12:45.281Z,100.00
2023-04-15T17:15:12.618Z,100.00
2023-04-15T17:17:39.785Z,100.00
2023-04-15T17:20:07.774Z,100.00
2023-04-15T17:22:34.348Z,100.00
2023-04-15T17:25:00.958Z,100.00
2023-04-15T17:27:28.890Z,100.00
2023-04-15T17:29:55.522Z,100.00
2023-04-15T17:32:22.757Z,100.00
2023-04-15T17:34:51.345Z,100.00
2023-04-15T17:37:18.741Z,100.00
2023-04-15T17:39:47.824Z,100.00
2023-04-15T17:42:15.940Z,100.00
2023-04-15T17:44:42.558Z,100.00
2023-04-15T17:47:09.618Z,100.00
2023-04-15T17:49:37.834Z,100.00
2023-04-15T17:52:04.627Z,100.00
2023-04-15T17:54:31.224Z,100.00
2023-04-15T17:56:57.996Z,100.00
2023-04-15T17:59:24.608Z,100.00
2023-04-15T18:01:51.414Z,100.00
2023-04-15T18:04:18.236Z,100.00
2023-04-15T18:06:44.900Z,100.00
2023-04-15T18:09:11.500Z,100.00
2023-04-15T18:11:40.025Z,100.00
2023-04-15T18:14:06.968Z,100.00
2023-04-15T18:16:34.121Z,100.00
2023-04-15T18:19:01.187Z,100.00
2023-04-15T18:21:29.121Z,100.00
2023-04-15T18:23:55.680Z,100.00
2023-04-15T18:26:22.418Z,100.00
2023-04-15T18:28:49.464Z,100.00
2023-04-15T18:31:16.097Z,100.00
2023-04-15T18:33:42.688Z,100.00
2023-04-15T18:36:10.616Z,100.00
2023-04-15T18:38:37.299Z,100.00
2023-04-15T18:41:05.457Z,100.00
2023-04-15T18:43:32.460Z,100.00
2023-04-15T18:46:00.051Z,100.00
2023-04-15T18:48:27.047Z,100.00
2023-04-15T18:50:54.146Z,100.00
2023-04-15T18:53:21.477Z,100.00
2023-04-15T18:55:48.180Z,100.00
2023-04-15T18:58:14.816Z,100.00
2023-04-15T19:00:43.726Z,100.00
2023-04-15T19:03:11.715Z,100.00
2023-04-15T19:05:38.823Z,100.00
2023-04-15T19:08:07.533Z,100.00
2023-04-15T19:10:34.629Z,100.00
2023-04-15T19:13:01.514Z,100.00
2023-04-15T19:15:29.035Z,100.00
2023-04-15T19:17:55.831Z,100.00
2023-04-15T19:20:22.542Z,100.00
2023-04-15T19:22:49.345Z,100.00
2023-04-15T19:25:15.952Z,100.00
2023-04-15T19:27:42.518Z,100.00
2023-04-15T19:30:09.618Z,100.00
2023-04-15T19:32:36.267Z,100.00
2023-04-15T19:35:02.986Z,100.00
2023-04-15T19:37:30.107Z,100.00
2023-04-15T19:39:57.216Z,100.00
2023-04-15T19:42:24.049Z,100.00
2023-04-15T19:44:51.322Z,100.00
2023-04-15T19:47:19.702Z,100.00
2023-04-15T19:49:47.553Z,100.00
2023-04-15T19:52:14.488Z,100.00
2023-04-15T19:54:41.336Z,100.00
2023-04-15T19:57:09.217Z,100.00
2023-04-15T19:59:35.896Z,100.00
2023-04-15T20:02:02.731Z,100.00
2023-04-15T20:04:29.685Z,100.00
2023-04-15T20:06:56.380Z,100.00
2023-04-15T20:09:23.411Z,100.00
2023-04-15T20:12:46.713Z,100.00
2023-04-15T20:14:38.469Z,100.00
2023-04-15T20:17:05.716Z,100.00
2023-04-15T20:19:32.760Z,100.00
2023-04-15T20:21:59.322Z,100.00
2023-04-15T20:24:26.055Z,100.00
2023-04-15T20:26:52.659Z,100.00
2023-04-15T20:29:19.304Z,100.00
2023-04-15T20:31:46.800Z,100.00
2023-04-15T20:34:13.485Z,100.00
2023-04-15T20:36:40.130Z,100.00
2023-04-15T20:39:06.910Z,100.00
2023-04-15T20:41:33.651Z,100.00
2023-04-15T20:44:00.405Z,100.00
2023-04-15T20:46:27.690Z,100.00
2023-04-15T20:48:54.733Z,100.00
2023-04-15T20:51:21.389Z,100.00
2023-04-15T20:53:48.090Z,100.00
2023-04-15T20:56:14.660Z,100.00
2023-04-15T20:58:41.302Z,100.00
2023-04-15T21:01:07.951Z,100.00
2023-04-15T21:03:34.889Z,100.00
2023-04-15T21:06:01.576Z,100.00
2023-04-15T21:08:31.517Z,100.00
2023-04-15T21:10:58.186Z,100.00
2023-04-15T21:13:24.836Z,100.00
2023-04-15T21:15:53.950Z,100.00
2023-04-15T21:18:22.189Z,100.00
2023-04-15T21:21:02.523Z,100.00
2023-04-15T21:23:29.851Z,100.00
2023-04-15T21:25:57.505Z,100.00
2023-04-15T21:28:24.111Z,100.00
2023-04-15T21:30:50.822Z,100.00
2023-04-15T21:33:20.052Z,100.00
2023-04-15T21:35:46.724Z,100.00
2023-04-15T21:38:13.804Z,100.00
2023-04-15T21:40:40.805Z,100.00
2023-04-15T21:43:08.104Z,100.00
2023-04-15T21:45:35.664Z,100.00
2023-04-15T21:48:07.837Z,100.00
2023-04-15T21:50:38.218Z,100.00
2023-04-15T21:53:07.138Z,100.00
2023-04-15T21:55:33.814Z,100.00
2023-04-15T21:58:00.564Z,100.00
2023-04-15T22:00:27.242Z,100.00
2023-04-15T22:02:53.983Z,100.00
2023-04-15T22:05:20.679Z,100.00
2023-04-15T22:07:47.349Z,100.00
2023-04-15T22:10:13.882Z,100.00
2023-04-15T22:12:41.906Z,100.00
2023-04-15T22:15:08.936Z,100.00
2023-04-15T22:17:35.674Z,100.00
2023-04-15T22:20:02.869Z,100.00
2023-04-15T22:22:43.501Z,100.00
2023-04-15T22:25:11.342Z,100.00
2023-04-15T22:27:37.986Z,100.00
2023-04-15T22:30:05.191Z,100.00
2023-04-15T22:32:31.845Z,100.00
2023-04-15T22:34:58.437Z,100.00
2023-04-15T22:37:25.144Z,100.00
2023-04-15T22:39:51.963Z,100.00
2023-04-15T22:42:18.568Z,100.00
2023-04-15T22:44:45.279Z,100.00
2023-04-15T22:47:11.860Z,100.00
2023-04-15T22:49:39.458Z,100.00
2023-04-15T22:52:06.114Z,100.00
2023-04-15T22:54:33.297Z,100.00
2023-04-15T22:56:59.900Z,100.00
2023-04-15T22:59:26.519Z,100.00
2023-04-15T23:01:53.539Z,100.00
2023-04-15T23:04:25.701Z,100.00
2023-04-15T23:06:53.900Z,100.00
2023-04-15T23:09:21.024Z,100.00
2023-04-15T23:11:47.665Z,100.00
2023-04-15T23:14:14.301Z,100.00
2023-04-15T23:16:41.246Z,100.00
2023-04-15T23:19:08.606Z,100.00
2023-04-15T23:21:35.545Z,100.00
2023-04-15T23:24:02.117Z,100.00
2023-04-15T23:26:28.798Z,100.00
2023-04-15T23:28:55.857Z,100.00
2023-04-15T23:31:23.546Z,100.00
2023-04-15T23:33:50.147Z,100.00
2023-04-15T23:36:17.047Z,100.00
2023-04-15T23:38:43.681Z,100.00
2023-04-15T23:41:11.857Z,100.00
2023-04-15T23:43:38.510Z,100.00
2023-04-15T23:46:05.306Z,100.00
2023-04-15T23:48:31.923Z,100.00
2023-04-15T23:50:58.771Z,100.00
2023-04-15T23:53:25.388Z,100.00
2023-04-15T23:55:51.970Z,100.00
2023-04-15T23:58:18.731Z,100.00
